sensor_id;sensor_type;location;lat;lon;timestamp;P1;durP1;ratioP1;P2;durP2;ratioP2
31818;SDS011;18384;48.860;9.188;2023-11-21T00:01:25;6.20;;;1.65;;
31818;SDS011;18384;48.860;9.188;2023-11-21T00:03:51;6.85;;;2.08;;
31818;SDS011;18384;48.860;9.188;2023-11-21T00:06:20;7.72;;;1.50;;
31818;SDS011;18384;48.860;9.188;2023-11-21T00:08:46;6.68;;;4.00;;
31818;SDS011;18384;48.860;9.188;2023-11-21T00:11:12;6.95;;;1.92;;
31818;SDS011;18384;48.860;9.188;2023-11-21T00:13:39;9.50;;;1.58;;
31818;SDS011;18384;48.860;9.188;2023-11-21T00:16:05;8.75;;;1.70;;
31818;SDS011;18384;48.860;9.188;2023-11-21T00:18:32;6.35;;;1.42;;
31818;SDS011;18384;48.860;9.188;2023-11-21T00:20:58;10.55;;;2.00;;
31818;SDS011;18384;48.860;9.188;2023-11-21T00:23:25;6.40;;;1.77;;
31818;SDS011;18384;48.860;9.188;2023-11-21T00:25:51;8.70;;;1.77;;
31818;SDS011;18384;48.860;9.188;2023-11-21T00:28:17;4.50;;;1.45;;
31818;SDS011;18384;48.860;9.188;2023-11-21T00:30:43;3.70;;;1.62;;
31818;SDS011;18384;48.860;9.188;2023-11-21T00:33:10;6.60;;;1.55;;
31818;SDS011;18384;48.860;9.188;2023-11-21T00:35:36;10.13;;;1.98;;
31818;SDS011;18384;48.860;9.188;2023-11-21T00:38:02;7.35;;;1.65;;
31818;SDS011;18384;48.860;9.188;2023-11-21T00:40:28;5.25;;;1.42;;
31818;SDS011;18384;48.860;9.188;2023-11-21T00:42:54;6.10;;;1.52;;
31818;SDS011;18384;48.860;9.188;2023-11-21T00:47:47;6.90;;;1.25;;
31818;SDS011;18384;48.860;9.188;2023-11-21T00:50:13;3.78;;;1.08;;
31818;SDS011;18384;48.860;9.188;2023-11-21T00:52:39;9.57;;;1.52;;
31818;SDS011;18384;48.860;9.188;2023-11-21T00:55:05;4.62;;;1.60;;
31818;SDS011;18384;48.860;9.188;2023-11-21T00:57:33;6.62;;;2.03;;
31818;SDS011;18384;48.860;9.188;2023-11-21T01:00:00;6.72;;;1.60;;
31818;SDS011;18384;48.860;9.188;2023-11-21T01:02:26;11.40;;;1.60;;
31818;SDS011;18384;48.860;9.188;2023-11-21T01:04:52;7.82;;;1.70;;
31818;SDS011;18384;48.860;9.188;2023-11-21T01:07:19;12.10;;;1.70;;
31818;SDS011;18384;48.860;9.188;2023-11-21T01:09:45;11.43;;;1.65;;
31818;SDS011;18384;48.860;9.188;2023-11-21T01:14:37;7.15;;;1.60;;
31818;SDS011;18384;48.860;9.188;2023-11-21T01:17:04;7.20;;;1.65;;
31818;SDS011;18384;48.860;9.188;2023-11-21T01:19:30;7.93;;;2.20;;
31818;SDS011;18384;48.860;9.188;2023-11-21T01:21:57;9.43;;;1.62;;
31818;SDS011;18384;48.860;9.188;2023-11-21T01:24:23;7.03;;;1.58;;
31818;SDS011;18384;48.860;9.188;2023-11-21T01:26:50;7.78;;;1.30;;
31818;SDS011;18384;48.860;9.188;2023-11-21T01:29:16;7.70;;;1.40;;
31818;SDS011;18384;48.860;9.188;2023-11-21T01:31:42;6.78;;;1.50;;
31818;SDS011;18384;48.860;9.188;2023-11-21T01:34:08;5.97;;;1.42;;
31818;SDS011;18384;48.860;9.188;2023-11-21T01:36:34;10.50;;;1.67;;
31818;SDS011;18384;48.860;9.188;2023-11-21T01:39:00;8.98;;;1.62;;
31818;SDS011;18384;48.860;9.188;2023-11-21T01:41:29;8.95;;;1.15;;
31818;SDS011;18384;48.860;9.188;2023-11-21T01:43:56;6.93;;;1.40;;
31818;SDS011;18384;48.860;9.188;2023-11-21T01:46:22;3.55;;;1.12;;
31818;SDS011;18384;48.860;9.188;2023-11-21T01:48:49;3.85;;;1.23;;
31818;SDS011;18384;48.860;9.188;2023-11-21T01:51:16;4.82;;;1.33;;
31818;SDS011;18384;48.860;9.188;2023-11-21T01:53:43;5.82;;;1.30;;
31818;SDS011;18384;48.860;9.188;2023-11-21T01:56:11;7.37;;;1.10;;
31818;SDS011;18384;48.860;9.188;2023-11-21T01:58:39;3.97;;;1.10;;
31818;SDS011;18384;48.860;9.188;2023-11-21T02:01:06;3.72;;;1.12;;
31818;SDS011;18384;48.860;9.188;2023-11-21T02:03:32;8.25;;;1.80;;
31818;SDS011;18384;48.860;9.188;2023-11-21T02:05:58;5.35;;;1.20;;
31818;SDS011;18384;48.860;9.188;2023-11-21T02:08:24;4.68;;;1.30;;
31818;SDS011;18384;48.860;9.188;2023-11-21T02:10:52;3.37;;;1.08;;
31818;SDS011;18384;48.860;9.188;2023-11-21T02:13:18;4.03;;;1.08;;
31818;SDS011;18384;48.860;9.188;2023-11-21T02:15:44;6.47;;;1.25;;
31818;SDS011;18384;48.860;9.188;2023-11-21T02:18:10;5.05;;;1.55;;
31818;SDS011;18384;48.860;9.188;2023-11-21T02:20:36;8.40;;;1.70;;
31818;SDS011;18384;48.860;9.188;2023-11-21T02:23:04;5.62;;;1.42;;
31818;SDS011;18384;48.860;9.188;2023-11-21T02:28:01;7.45;;;1.67;;
31818;SDS011;18384;48.860;9.188;2023-11-21T02:30:29;6.15;;;1.05;;
31818;SDS011;18384;48.860;9.188;2023-11-21T02:32:59;4.50;;;1.20;;
31818;SDS011;18384;48.860;9.188;2023-11-21T02:35:26;3.72;;;1.30;;
31818;SDS011;18384;48.860;9.188;2023-11-21T02:37:52;6.22;;;1.30;;
31818;SDS011;18384;48.860;9.188;2023-11-21T02:40:20;4.47;;;1.30;;
31818;SDS011;18384;48.860;9.188;2023-11-21T02:42:49;4.12;;;1.05;;
31818;SDS011;18384;48.860;9.188;2023-11-21T02:45:21;4.18;;;1.30;;
31818;SDS011;18384;48.860;9.188;2023-11-21T02:47:49;5.20;;;1.00;;
31818;SDS011;18384;48.860;9.188;2023-11-21T02:50:15;2.92;;;1.25;;
31818;SDS011;18384;48.860;9.188;2023-11-21T02:52:44;4.72;;;1.20;;
31818;SDS011;18384;48.860;9.188;2023-11-21T02:55:10;1.73;;;0.85;;
31818;SDS011;18384;48.860;9.188;2023-11-21T02:57:36;7.15;;;1.52;;
31818;SDS011;18384;48.860;9.188;2023-11-21T03:00:02;4.78;;;1.15;;
31818;SDS011;18384;48.860;9.188;2023-11-21T03:02:33;6.43;;;2.55;;
31818;SDS011;18384;48.860;9.188;2023-11-21T03:05:04;9.38;;;1.30;;
31818;SDS011;18384;48.860;9.188;2023-11-21T03:07:31;6.18;;;1.25;;
31818;SDS011;18384;48.860;9.188;2023-11-21T03:09:57;6.68;;;1.62;;
31818;SDS011;18384;48.860;9.188;2023-11-21T03:12:23;4.45;;;0.95;;
31818;SDS011;18384;48.860;9.188;2023-11-21T03:14:50;4.60;;;1.00;;
31818;SDS011;18384;48.860;9.188;2023-11-21T03:17:16;3.35;;;0.90;;
31818;SDS011;18384;48.860;9.188;2023-11-21T03:19:42;4.20;;;1.20;;
31818;SDS011;18384;48.860;9.188;2023-11-21T03:22:08;4.40;;;1.20;;
31818;SDS011;18384;48.860;9.188;2023-11-21T03:27:01;8.45;;;3.08;;
31818;SDS011;18384;48.860;9.188;2023-11-21T03:29:27;5.60;;;1.60;;
31818;SDS011;18384;48.860;9.188;2023-11-21T03:31:53;7.37;;;1.83;;
31818;SDS011;18384;48.860;9.188;2023-11-21T03:34:23;6.15;;;1.67;;
31818;SDS011;18384;48.860;9.188;2023-11-21T03:36:52;2.67;;;1.23;;
31818;SDS011;18384;48.860;9.188;2023-11-21T03:39:19;4.87;;;1.30;;
31818;SDS011;18384;48.860;9.188;2023-11-21T03:41:46;7.37;;;1.05;;
31818;SDS011;18384;48.860;9.188;2023-11-21T03:44:12;2.80;;;1.10;;
31818;SDS011;18384;48.860;9.188;2023-11-21T03:46:39;3.22;;;1.27;;
31818;SDS011;18384;48.860;9.188;2023-11-21T03:49:05;3.70;;;1.30;;
31818;SDS011;18384;48.860;9.188;2023-11-21T03:51:31;3.28;;;0.75;;
31818;SDS011;18384;48.860;9.188;2023-11-21T03:53:58;1.95;;;0.90;;
31818;SDS011;18384;48.860;9.188;2023-11-21T03:56:24;2.70;;;1.23;;
31818;SDS011;18384;48.860;9.188;2023-11-21T03:58:50;4.47;;;1.30;;
31818;SDS011;18384;48.860;9.188;2023-11-21T04:01:20;8.35;;;1.30;;
31818;SDS011;18384;48.860;9.188;2023-11-21T04:03:50;4.75;;;1.30;;
31818;SDS011;18384;48.860;9.188;2023-11-21T04:06:16;3.50;;;1.15;;
31818;SDS011;18384;48.860;9.188;2023-11-21T04:08:43;4.57;;;1.05;;
31818;SDS011;18384;48.860;9.188;2023-11-21T04:11:10;2.37;;;1.02;;
31818;SDS011;18384;48.860;9.188;2023-11-21T04:13:37;3.30;;;1.20;;
31818;SDS011;18384;48.860;9.188;2023-11-21T04:16:05;3.53;;;1.40;;
31818;SDS011;18384;48.860;9.188;2023-11-21T04:18:33;4.62;;;1.20;;
31818;SDS011;18384;48.860;9.188;2023-11-21T04:21:03;5.85;;;0.85;;
31818;SDS011;18384;48.860;9.188;2023-11-21T04:23:30;7.00;;;0.88;;
31818;SDS011;18384;48.860;9.188;2023-11-21T04:25:59;2.95;;;0.80;;
31818;SDS011;18384;48.860;9.188;2023-11-21T04:28:27;4.32;;;0.80;;
31818;SDS011;18384;48.860;9.188;2023-11-21T04:30:53;4.72;;;1.20;;
31818;SDS011;18384;48.860;9.188;2023-11-21T04:33:19;2.20;;;1.08;;
31818;SDS011;18384;48.860;9.188;2023-11-21T04:35:46;4.07;;;0.90;;
31818;SDS011;18384;48.860;9.188;2023-11-21T04:38:13;2.83;;;0.85;;
31818;SDS011;18384;48.860;9.188;2023-11-21T04:40:39;2.62;;;0.80;;
31818;SDS011;18384;48.860;9.188;2023-11-21T04:43:05;2.15;;;0.80;;
31818;SDS011;18384;48.860;9.188;2023-11-21T04:45:32;4.07;;;1.20;;
31818;SDS011;18384;48.860;9.188;2023-11-21T04:47:58;2.90;;;0.98;;
31818;SDS011;18384;48.860;9.188;2023-11-21T04:50:24;1.55;;;0.80;;
31818;SDS011;18384;48.860;9.188;2023-11-21T04:52:52;4.12;;;1.10;;
31818;SDS011;18384;48.860;9.188;2023-11-21T04:55:19;3.28;;;0.90;;
31818;SDS011;18384;48.860;9.188;2023-11-21T04:57:45;1.77;;;0.68;;
31818;SDS011;18384;48.860;9.188;2023-11-21T05:00:12;2.80;;;0.90;;
31818;SDS011;18384;48.860;9.188;2023-11-21T05:02:40;2.28;;;0.80;;
31818;SDS011;18384;48.860;9.188;2023-11-21T05:05:07;2.22;;;0.88;;
31818;SDS011;18384;48.860;9.188;2023-11-21T05:07:35;5.35;;;1.02;;
31818;SDS011;18384;48.860;9.188;2023-11-21T05:10:01;6.07;;;0.93;;
31818;SDS011;18384;48.860;9.188;2023-11-21T05:12:33;2.65;;;0.90;;
31818;SDS011;18384;48.860;9.188;2023-11-21T05:15:03;4.30;;;1.10;;
31818;SDS011;18384;48.860;9.188;2023-11-21T05:17:40;4.85;;;1.02;;
31818;SDS011;18384;48.860;9.188;2023-11-21T05:20:11;6.57;;;0.95;;
31818;SDS011;18384;48.860;9.188;2023-11-21T05:22:39;5.28;;;1.17;;
31818;SDS011;18384;48.860;9.188;2023-11-21T05:25:07;5.22;;;1.45;;
31818;SDS011;18384;48.860;9.188;2023-11-21T05:27:34;4.72;;;1.40;;
31818;SDS011;18384;48.860;9.188;2023-11-21T05:30:01;2.40;;;1.20;;
31818;SDS011;18384;48.860;9.188;2023-11-21T05:32:34;5.97;;;1.45;;
31818;SDS011;18384;48.860;9.188;2023-11-21T05:35:00;4.12;;;1.40;;
31818;SDS011;18384;48.860;9.188;2023-11-21T05:37:26;3.50;;;1.37;;
31818;SDS011;18384;48.860;9.188;2023-11-21T05:39:53;5.80;;;1.50;;
31818;SDS011;18384;48.860;9.188;2023-11-21T05:42:22;4.10;;;1.25;;
31818;SDS011;18384;48.860;9.188;2023-11-21T05:44:48;3.05;;;1.65;;
31818;SDS011;18384;48.860;9.188;2023-11-21T05:47:14;3.85;;;1.60;;
31818;SDS011;18384;48.860;9.188;2023-11-21T05:49:41;4.87;;;1.42;;
31818;SDS011;18384;48.860;9.188;2023-11-21T05:52:07;3.55;;;1.37;;
31818;SDS011;18384;48.860;9.188;2023-11-21T05:54:33;4.78;;;1.40;;
31818;SDS011;18384;48.860;9.188;2023-11-21T05:56:59;5.43;;;1.20;;
31818;SDS011;18384;48.860;9.188;2023-11-21T05:59:26;3.05;;;1.25;;
31818;SDS011;18384;48.860;9.188;2023-11-21T06:01:52;3.58;;;1.25;;
31818;SDS011;18384;48.860;9.188;2023-11-21T06:04:19;4.22;;;1.30;;
31818;SDS011;18384;48.860;9.188;2023-11-21T06:06:49;5.70;;;2.08;;
31818;SDS011;18384;48.860;9.188;2023-11-21T06:09:16;4.00;;;1.60;;
31818;SDS011;18384;48.860;9.188;2023-11-21T06:11:42;2.72;;;1.40;;
31818;SDS011;18384;48.860;9.188;2023-11-21T06:14:08;3.62;;;1.58;;
31818;SDS011;18384;48.860;9.188;2023-11-21T06:16:36;5.97;;;2.30;;
31818;SDS011;18384;48.860;9.188;2023-11-21T06:19:02;5.05;;;2.55;;
31818;SDS011;18384;48.860;9.188;2023-11-21T06:21:28;5.60;;;3.33;;
31818;SDS011;18384;48.860;9.188;2023-11-21T06:23:54;7.95;;;3.60;;
31818;SDS011;18384;48.860;9.188;2023-11-21T06:26:22;8.07;;;3.33;;
31818;SDS011;18384;48.860;9.188;2023-11-21T06:28:49;4.90;;;2.35;;
31818;SDS011;18384;48.860;9.188;2023-11-21T06:31:16;4.90;;;2.10;;
31818;SDS011;18384;48.860;9.188;2023-11-21T06:33:43;7.12;;;2.00;;
31818;SDS011;18384;48.860;9.188;2023-11-21T06:36:09;4.22;;;1.65;;
31818;SDS011;18384;48.860;9.188;2023-11-21T06:38:37;5.95;;;2.28;;
31818;SDS011;18384;48.860;9.188;2023-11-21T06:41:03;3.45;;;1.55;;
31818;SDS011;18384;48.860;9.188;2023-11-21T06:43:30;3.78;;;1.45;;
31818;SDS011;18384;48.860;9.188;2023-11-21T06:48:22;3.25;;;1.50;;
31818;SDS011;18384;48.860;9.188;2023-11-21T06:50:48;3.45;;;1.37;;
31818;SDS011;18384;48.860;9.188;2023-11-21T06:53:14;3.15;;;1.70;;
31818;SDS011;18384;48.860;9.188;2023-11-21T06:55:41;3.12;;;1.40;;
31818;SDS011;18384;48.860;9.188;2023-11-21T06:58:07;2.55;;;1.48;;
31818;SDS011;18384;48.860;9.188;2023-11-21T07:00:33;5.00;;;1.98;;
31818;SDS011;18384;48.860;9.188;2023-11-21T07:03:00;4.47;;;1.55;;
31818;SDS011;18384;48.860;9.188;2023-11-21T07:05:26;5.40;;;2.00;;
31818;SDS011;18384;48.860;9.188;2023-11-21T07:07:52;8.60;;;2.25;;
31818;SDS011;18384;48.860;9.188;2023-11-21T07:10:19;5.93;;;2.40;;
31818;SDS011;18384;48.860;9.188;2023-11-21T07:12:45;8.07;;;2.37;;
31818;SDS011;18384;48.860;9.188;2023-11-21T07:15:11;6.35;;;2.10;;
31818;SDS011;18384;48.860;9.188;2023-11-21T07:17:37;3.62;;;2.08;;
31818;SDS011;18384;48.860;9.188;2023-11-21T07:20:05;3.70;;;2.10;;
31818;SDS011;18384;48.860;9.188;2023-11-21T07:22:32;7.97;;;2.65;;
31818;SDS011;18384;48.860;9.188;2023-11-21T07:24:58;6.78;;;2.33;;
31818;SDS011;18384;48.860;9.188;2023-11-21T07:27:24;6.05;;;2.50;;
31818;SDS011;18384;48.860;9.188;2023-11-21T07:29:50;5.47;;;2.55;;
31818;SDS011;18384;48.860;9.188;2023-11-21T07:32:16;6.57;;;3.35;;
31818;SDS011;18384;48.860;9.188;2023-11-21T07:34:42;6.12;;;2.87;;
31818;SDS011;18384;48.860;9.188;2023-11-21T07:37:09;8.48;;;2.85;;
31818;SDS011;18384;48.860;9.188;2023-11-21T07:39:35;4.32;;;2.78;;
31818;SDS011;18384;48.860;9.188;2023-11-21T07:42:01;5.50;;;2.90;;
31818;SDS011;18384;48.860;9.188;2023-11-21T07:44:29;5.93;;;2.47;;
31818;SDS011;18384;48.860;9.188;2023-11-21T07:46:55;16.20;;;5.72;;
31818;SDS011;18384;48.860;9.188;2023-11-21T07:49:23;7.10;;;3.65;;
31818;SDS011;18384;48.860;9.188;2023-11-21T07:51:50;8.27;;;3.75;;
31818;SDS011;18384;48.860;9.188;2023-11-21T07:56:42;7.90;;;3.62;;
31818;SDS011;18384;48.860;9.188;2023-11-21T07:59:08;9.98;;;3.83;;
31818;SDS011;18384;48.860;9.188;2023-11-21T08:04:00;6.95;;;2.58;;
31818;SDS011;18384;48.860;9.188;2023-11-21T08:06:29;6.40;;;2.37;;
31818;SDS011;18384;48.860;9.188;2023-11-21T08:08:56;5.97;;;2.90;;
31818;SDS011;18384;48.860;9.188;2023-11-21T08:11:22;5.60;;;2.85;;
31818;SDS011;18384;48.860;9.188;2023-11-21T08:13:48;5.00;;;1.85;;
31818;SDS011;18384;48.860;9.188;2023-11-21T08:16:14;6.45;;;2.78;;
31818;SDS011;18384;48.860;9.188;2023-11-21T08:18:42;6.25;;;2.30;;
31818;SDS011;18384;48.860;9.188;2023-11-21T08:21:08;3.22;;;1.85;;
31818;SDS011;18384;48.860;9.188;2023-11-21T08:23:34;4.57;;;1.77;;
31818;SDS011;18384;48.860;9.188;2023-11-21T08:26:00;9.77;;;1.70;;
31818;SDS011;18384;48.860;9.188;2023-11-21T08:28:28;7.28;;;1.65;;
31818;SDS011;18384;48.860;9.188;2023-11-21T08:30:54;7.30;;;2.00;;
31818;SDS011;18384;48.860;9.188;2023-11-21T08:33:20;5.53;;;1.50;;
31818;SDS011;18384;48.860;9.188;2023-11-21T08:35:46;3.70;;;1.45;;
31818;SDS011;18384;48.860;9.188;2023-11-21T08:40:39;7.82;;;1.85;;
31818;SDS011;18384;48.860;9.188;2023-11-21T08:45:32;5.22;;;1.50;;
31818;SDS011;18384;48.860;9.188;2023-11-21T08:47:59;3.25;;;1.60;;
31818;SDS011;18384;48.860;9.188;2023-11-21T08:50:27;4.40;;;1.60;;
31818;SDS011;18384;48.860;9.188;2023-11-21T08:52:53;3.03;;;1.58;;
31818;SDS011;18384;48.860;9.188;2023-11-21T08:55:19;6.35;;;2.25;;
31818;SDS011;18384;48.860;9.188;2023-11-21T09:00:12;4.25;;;1.50;;
31818;SDS011;18384;48.860;9.188;2023-11-21T09:02:42;2.20;;;1.25;;
31818;SDS011;18384;48.860;9.188;2023-11-21T09:05:09;1.87;;;1.05;;
31818;SDS011;18384;48.860;9.188;2023-11-21T09:07:37;4.82;;;1.00;;
31818;SDS011;18384;48.860;9.188;2023-11-21T09:10:06;2.67;;;1.15;;
31818;SDS011;18384;48.860;9.188;2023-11-21T09:12:34;3.90;;;1.40;;
31818;SDS011;18384;48.860;9.188;2023-11-21T09:15:05;3.35;;;1.02;;
31818;SDS011;18384;48.860;9.188;2023-11-21T09:17:33;2.92;;;1.10;;
31818;SDS011;18384;48.860;9.188;2023-11-21T09:19:59;2.40;;;1.40;;
31818;SDS011;18384;48.860;9.188;2023-11-21T09:24:55;3.45;;;1.87;;
31818;SDS011;18384;48.860;9.188;2023-11-21T09:27:23;7.10;;;1.62;;
31818;SDS011;18384;48.860;9.188;2023-11-21T09:29:50;6.20;;;1.83;;
31818;SDS011;18384;48.860;9.188;2023-11-21T09:32:18;5.53;;;1.83;;
31818;SDS011;18384;48.860;9.188;2023-11-21T09:34:46;4.00;;;1.30;;
31818;SDS011;18384;48.860;9.188;2023-11-21T09:37:13;2.35;;;1.30;;
31818;SDS011;18384;48.860;9.188;2023-11-21T09:39:39;2.90;;;1.30;;
31818;SDS011;18384;48.860;9.188;2023-11-21T09:42:13;5.90;;;1.87;;
31818;SDS011;18384;48.860;9.188;2023-11-21T09:45:15;3.72;;;1.40;;
31818;SDS011;18384;48.860;9.188;2023-11-21T09:47:50;5.97;;;1.55;;
31818;SDS011;18384;48.860;9.188;2023-11-21T09:50:20;2.03;;;1.00;;
31818;SDS011;18384;48.860;9.188;2023-11-21T09:53:21;2.97;;;1.23;;
31818;SDS011;18384;48.860;9.188;2023-11-21T09:55:51;2.83;;;0.90;;
31818;SDS011;18384;48.860;9.188;2023-11-21T09:58:18;4.87;;;1.08;;
31818;SDS011;18384;48.860;9.188;2023-11-21T10:00:47;2.25;;;1.08;;
31818;SDS011;18384;48.860;9.188;2023-11-21T10:03:16;2.53;;;1.25;;
31818;SDS011;18384;48.860;9.188;2023-11-21T10:05:42;5.35;;;1.35;;
31818;SDS011;18384;48.860;9.188;2023-11-21T10:08:11;1.60;;;1.08;;
31818;SDS011;18384;48.860;9.188;2023-11-21T10:10:38;8.40;;;1.40;;
31818;SDS011;18384;48.860;9.188;2023-11-21T10:13:15;3.25;;;1.05;;
31818;SDS011;18384;48.860;9.188;2023-11-21T10:15:44;1.73;;;1.00;;
31818;SDS011;18384;48.860;9.188;2023-11-21T10:18:16;2.72;;;1.05;;
31818;SDS011;18384;48.860;9.188;2023-11-21T10:20:43;2.47;;;1.05;;
31818;SDS011;18384;48.860;9.188;2023-11-21T10:23:18;1.60;;;1.00;;
31818;SDS011;18384;48.860;9.188;2023-11-21T10:25:46;4.72;;;2.08;;
31818;SDS011;18384;48.860;9.188;2023-11-21T10:28:12;1.48;;;0.77;;
31818;SDS011;18384;48.860;9.188;2023-11-21T10:30:38;2.78;;;1.08;;
31818;SDS011;18384;48.860;9.188;2023-11-21T10:33:05;3.37;;;0.98;;
31818;SDS011;18384;48.860;9.188;2023-11-21T10:35:43;2.72;;;1.10;;
31818;SDS011;18384;48.860;9.188;2023-11-21T10:38:17;2.08;;;1.12;;
31818;SDS011;18384;48.860;9.188;2023-11-21T10:40:44;2.92;;;1.25;;
31818;SDS011;18384;48.860;9.188;2023-11-21T10:43:11;2.90;;;1.20;;
31818;SDS011;18384;48.860;9.188;2023-11-21T10:45:40;3.15;;;1.00;;
31818;SDS011;18384;48.860;9.188;2023-11-21T10:48:08;2.17;;;1.10;;
31818;SDS011;18384;48.860;9.188;2023-11-21T10:50:36;2.45;;;1.00;;
31818;SDS011;18384;48.860;9.188;2023-11-21T10:53:03;1.10;;;0.70;;
31818;SDS011;18384;48.860;9.188;2023-11-21T10:55:30;1.75;;;0.93;;
31818;SDS011;18384;48.860;9.188;2023-11-21T10:58:02;5.07;;;1.37;;
31818;SDS011;18384;48.860;9.188;2023-11-21T11:00:30;2.00;;;1.10;;
31818;SDS011;18384;48.860;9.188;2023-11-21T11:02:58;2.55;;;1.25;;
31818;SDS011;18384;48.860;9.188;2023-11-21T11:05:29;2.83;;;1.60;;
31818;SDS011;18384;48.860;9.188;2023-11-21T11:08:08;1.80;;;1.10;;
31818;SDS011;18384;48.860;9.188;2023-11-21T11:10:37;5.60;;;1.52;;
31818;SDS011;18384;48.860;9.188;2023-11-21T11:15:31;2.70;;;1.08;;
31818;SDS011;18384;48.860;9.188;2023-11-21T11:17:58;3.20;;;1.33;;
31818;SDS011;18384;48.860;9.188;2023-11-21T11:20:26;6.00;;;2.30;;
31818;SDS011;18384;48.860;9.188;2023-11-21T11:23:11;2.08;;;1.02;;
31818;SDS011;18384;48.860;9.188;2023-11-21T11:26:08;3.35;;;1.40;;
31818;SDS011;18384;48.860;9.188;2023-11-21T11:30:25;5.12;;;1.77;;
31818;SDS011;18384;48.860;9.188;2023-11-21T11:36:55;3.45;;;1.65;;
31818;SDS011;18384;48.860;9.188;2023-11-21T11:39:37;2.55;;;1.30;;
31818;SDS011;18384;48.860;9.188;2023-11-21T11:42:14;2.45;;;1.33;;
31818;SDS011;18384;48.860;9.188;2023-11-21T11:44:46;4.07;;;1.58;;
31818;SDS011;18384;48.860;9.188;2023-11-21T11:50:04;2.67;;;1.20;;
31818;SDS011;18384;48.860;9.188;2023-11-21T11:52:43;2.05;;;1.20;;
31818;SDS011;18384;48.860;9.188;2023-11-21T11:55:14;2.40;;;1.50;;
31818;SDS011;18384;48.860;9.188;2023-11-21T11:57:54;2.10;;;1.35;;
31818;SDS011;18384;48.860;9.188;2023-11-21T12:00:42;2.70;;;1.40;;
31818;SDS011;18384;48.860;9.188;2023-11-21T12:03:10;2.20;;;1.25;;
31818;SDS011;18384;48.860;9.188;2023-11-21T12:05:36;4.72;;;1.87;;
31818;SDS011;18384;48.860;9.188;2023-11-21T12:08:06;2.35;;;1.40;;
31818;SDS011;18384;48.860;9.188;2023-11-21T12:10:37;3.87;;;1.70;;
31818;SDS011;18384;48.860;9.188;2023-11-21T12:13:08;6.68;;;2.40;;
31818;SDS011;18384;48.860;9.188;2023-11-21T12:15:37;5.68;;;1.40;;
31818;SDS011;18384;48.860;9.188;2023-11-21T12:18:05;5.65;;;3.37;;
31818;SDS011;18384;48.860;9.188;2023-11-21T12:20:31;2.75;;;1.92;;
31818;SDS011;18384;48.860;9.188;2023-11-21T12:23:03;4.97;;;2.72;;
31818;SDS011;18384;48.860;9.188;2023-11-21T12:25:31;3.75;;;2.20;;
31818;SDS011;18384;48.860;9.188;2023-11-21T12:27:58;3.85;;;1.87;;
31818;SDS011;18384;48.860;9.188;2023-11-21T12:30:26;2.28;;;1.50;;
31818;SDS011;18384;48.860;9.188;2023-11-21T12:32:56;4.10;;;1.75;;
31818;SDS011;18384;48.860;9.188;2023-11-21T12:35:26;13.68;;;5.75;;
31818;SDS011;18384;48.860;9.188;2023-11-21T12:37:55;2.92;;;1.90;;
31818;SDS011;18384;48.860;9.188;2023-11-21T12:40:22;8.65;;;4.62;;
31818;SDS011;18384;48.860;9.188;2023-11-21T12:42:50;3.12;;;2.17;;
31818;SDS011;18384;48.860;9.188;2023-11-21T12:45:22;2.53;;;1.75;;
31818;SDS011;18384;48.860;9.188;2023-11-21T12:47:54;3.50;;;2.20;;
31818;SDS011;18384;48.860;9.188;2023-11-21T12:50:25;3.62;;;2.45;;
31818;SDS011;18384;48.860;9.188;2023-11-21T12:52:57;4.97;;;3.50;;
31818;SDS011;18384;48.860;9.188;2023-11-21T12:55:32;3.53;;;2.50;;
31818;SDS011;18384;48.860;9.188;2023-11-21T12:58:03;6.30;;;2.80;;
31818;SDS011;18384;48.860;9.188;2023-11-21T13:00:38;4.35;;;1.77;;
31818;SDS011;18384;48.860;9.188;2023-11-21T13:03:09;2.87;;;1.60;;
31818;SDS011;18384;48.860;9.188;2023-11-21T13:05:49;5.15;;;1.70;;
31818;SDS011;18384;48.860;9.188;2023-11-21T13:08:16;3.83;;;1.80;;
31818;SDS011;18384;48.860;9.188;2023-11-21T13:10:48;4.65;;;1.70;;
31818;SDS011;18384;48.860;9.188;2023-11-21T13:13:21;4.03;;;2.30;;
31818;SDS011;18384;48.860;9.188;2023-11-21T13:15:50;3.45;;;1.65;;
31818;SDS011;18384;48.860;9.188;2023-11-21T13:18:22;2.45;;;1.67;;
31818;SDS011;18384;48.860;9.188;2023-11-21T13:20:50;3.50;;;1.40;;
31818;SDS011;18384;48.860;9.188;2023-11-21T13:23:18;1.95;;;1.30;;
31818;SDS011;18384;48.860;9.188;2023-11-21T13:25:44;2.17;;;1.30;;
31818;SDS011;18384;48.860;9.188;2023-11-21T13:28:12;2.80;;;1.45;;
31818;SDS011;18384;48.860;9.188;2023-11-21T13:30:41;2.72;;;1.80;;
31818;SDS011;18384;48.860;9.188;2023-11-21T13:33:10;4.18;;;1.60;;
31818;SDS011;18384;48.860;9.188;2023-11-21T13:35:43;6.32;;;1.85;;
31818;SDS011;18384;48.860;9.188;2023-11-21T13:38:14;5.97;;;1.87;;
31818;SDS011;18384;48.860;9.188;2023-11-21T13:40:48;3.58;;;2.00;;
31818;SDS011;18384;48.860;9.188;2023-11-21T13:43:28;2.58;;;1.60;;
31818;SDS011;18384;48.860;9.188;2023-11-21T13:45:54;7.50;;;2.05;;
31818;SDS011;18384;48.860;9.188;2023-11-21T13:48:26;7.00;;;3.28;;
31818;SDS011;18384;48.860;9.188;2023-11-21T13:51:12;7.57;;;2.10;;
31818;SDS011;18384;48.860;9.188;2023-11-21T13:53:43;6.37;;;1.80;;
31818;SDS011;18384;48.860;9.188;2023-11-21T13:56:15;3.85;;;2.22;;
31818;SDS011;18384;48.860;9.188;2023-11-21T13:58:53;5.00;;;2.78;;
31818;SDS011;18384;48.860;9.188;2023-11-21T14:01:21;4.00;;;1.90;;
31818;SDS011;18384;48.860;9.188;2023-11-21T14:04:25;2.40;;;1.23;;
31818;SDS011;18384;48.860;9.188;2023-11-21T14:07:15;3.50;;;1.40;;
31818;SDS011;18384;48.860;9.188;2023-11-21T14:10:02;2.80;;;1.40;;
31818;SDS011;18384;48.860;9.188;2023-11-21T14:12:32;2.97;;;1.75;;
31818;SDS011;18384;48.860;9.188;2023-11-21T14:15:01;3.92;;;1.73;;
31818;SDS011;18384;48.860;9.188;2023-11-21T14:17:31;2.10;;;1.35;;
31818;SDS011;18384;48.860;9.188;2023-11-21T14:19:57;5.37;;;2.70;;
31818;SDS011;18384;48.860;9.188;2023-11-21T14:22:23;1.98;;;1.35;;
31818;SDS011;18384;48.860;9.188;2023-11-21T14:24:50;2.15;;;1.25;;
31818;SDS011;18384;48.860;9.188;2023-11-21T14:27:17;2.55;;;1.33;;
31818;SDS011;18384;48.860;9.188;2023-11-21T14:29:43;2.08;;;1.30;;
31818;SDS011;18384;48.860;9.188;2023-11-21T14:32:09;4.65;;;1.67;;
31818;SDS011;18384;48.860;9.188;2023-11-21T14:34:36;3.33;;;1.67;;
31818;SDS011;18384;48.860;9.188;2023-11-21T14:37:03;6.15;;;2.83;;
31818;SDS011;18384;48.860;9.188;2023-11-21T14:39:29;5.57;;;1.73;;
31818;SDS011;18384;48.860;9.188;2023-11-21T14:41:56;6.40;;;3.12;;
31818;SDS011;18384;48.860;9.188;2023-11-21T14:44:24;14.70;;;4.50;;
31818;SDS011;18384;48.860;9.188;2023-11-21T14:46:53;7.70;;;3.08;;
31818;SDS011;18384;48.860;9.188;2023-11-21T14:49:20;28.75;;;7.37;;
31818;SDS011;18384;48.860;9.188;2023-11-21T14:51:48;9.00;;;3.28;;
31818;SDS011;18384;48.860;9.188;2023-11-21T14:54:29;9.90;;;3.03;;
31818;SDS011;18384;48.860;9.188;2023-11-21T14:57:06;18.80;;;6.30;;
31818;SDS011;18384;48.860;9.188;2023-11-21T14:59:36;11.00;;;3.72;;
31818;SDS011;18384;48.860;9.188;2023-11-21T15:02:08;13.18;;;3.90;;
31818;SDS011;18384;48.860;9.188;2023-11-21T15:04:43;17.58;;;5.12;;
31818;SDS011;18384;48.860;9.188;2023-11-21T15:07:10;19.05;;;4.60;;
31818;SDS011;18384;48.860;9.188;2023-11-21T15:09:39;17.73;;;6.10;;
31818;SDS011;18384;48.860;9.188;2023-11-21T15:12:08;9.77;;;3.22;;
31818;SDS011;18384;48.860;9.188;2023-11-21T15:14:45;7.30;;;3.17;;
31818;SDS011;18384;48.860;9.188;2023-11-21T15:17:20;9.75;;;3.50;;
31818;SDS011;18384;48.860;9.188;2023-11-21T15:19:51;13.75;;;5.35;;
31818;SDS011;18384;48.860;9.188;2023-11-21T15:22:19;6.25;;;3.22;;
31818;SDS011;18384;48.860;9.188;2023-11-21T15:24:45;11.15;;;4.20;;
31818;SDS011;18384;48.860;9.188;2023-11-21T15:27:13;9.38;;;4.90;;
31818;SDS011;18384;48.860;9.188;2023-11-21T15:29:41;7.47;;;4.03;;
31818;SDS011;18384;48.860;9.188;2023-11-21T15:32:08;19.25;;;8.73;;
31818;SDS011;18384;48.860;9.188;2023-11-21T15:34:35;22.95;;;11.10;;